sensor_id;sensor_type;location;lat;lon;timestamp;pressure;altitude;pressure_sealevel;temperature;humidity
50636;BME280;36598;46.054;11.130;2023-03-23T00:00:51;99083.84;;;13.21;55.05
50636;BME280;36598;46.054;11.130;2023-03-23T00:03:16;99098.28;;;13.49;54.51
50636;BME280;36598;46.054;11.130;2023-03-23T00:05:42;99091.25;;;13.73;53.63
50636;BME280;36598;46.054;11.130;2023-03-23T00:08:15;99099.75;;;13.53;54.67
50636;BME280;36598;46.054;11.130;2023-03-23T00:10:40;99100.59;;;13.18;55.15
50636;BME280;36598;46.054;11.130;2023-03-23T00:13:06;99105.38;;;13.17;55.31
50636;BME280;36598;46.054;11.130;2023-03-23T00:15:31;99099.47;;;12.99;56.03
50636;BME280;36598;46.054;11.130;2023-03-23T00:17:58;99098.47;;;13.25;55.16
50636;BME280;36598;46.054;11.130;2023-03-23T00:20:31;99092.53;;;13.40;54.90
50636;BME280;36598;46.054;11.130;2023-03-23T00:23:04;99100.88;;;13.40;54.72
50636;BME280;36598;46.054;11.130;2023-03-23T00:25:30;99094.59;;;13.52;54.63
50636;BME280;36598;46.054;11.130;2023-03-23T00:27:55;99090.81;;;13.46;54.34
50636;BME280;36598;46.054;11.130;2023-03-23T00:30:21;99093.66;;;13.59;54.53
50636;BME280;36598;46.054;11.130;2023-03-23T00:32:47;99086.84;;;13.60;54.72
50636;BME280;36598;46.054;11.130;2023-03-23T00:35:13;99087.31;;;13.58;54.66
50636;BME280;36598;46.054;11.130;2023-03-23T00:37:39;99092.97;;;13.38;54.70
50636;BME280;36598;46.054;11.130;2023-03-23T00:40:04;99094.72;;;13.16;55.13
50636;BME280;36598;46.054;11.130;2023-03-23T00:42:34;99091.16;;;13.32;55.00
50636;BME280;36598;46.054;11.130;2023-03-23T00:45:02;99083.06;;;13.04;55.62
50636;BME280;36598;46.054;11.130;2023-03-23T00:47:29;99089.50;;;13.34;55.16
50636;BME280;36598;46.054;11.130;2023-03-23T00:49:55;99078.28;;;13.21;54.98
50636;BME280;36598;46.054;11.130;2023-03-23T00:52:21;99087.31;;;12.93;56.20
50636;BME280;36598;46.054;11.130;2023-03-23T00:54:46;99083.13;;;12.85;56.54
50636;BME280;36598;46.054;11.130;2023-03-23T00:57:12;99082.22;;;13.08;56.06
50636;BME280;36598;46.054;11.130;2023-03-23T00:59:37;99084.91;;;13.11;55.67
50636;BME280;36598;46.054;11.130;2023-03-23T01:02:02;99089.47;;;13.01;56.13
50636;BME280;36598;46.054;11.130;2023-03-23T01:04:28;99079.25;;;12.98;56.24
50636;BME280;36598;46.054;11.130;2023-03-23T01:06:56;99084.91;;;13.11;56.44
50636;BME280;36598;46.054;11.130;2023-03-23T01:09:22;99081.16;;;12.85;56.87
50636;BME280;36598;46.054;11.130;2023-03-23T01:11:49;99075.44;;;12.92;57.18
50636;BME280;36598;46.054;11.130;2023-03-23T01:14:15;99084.75;;;13.02;56.56
50636;BME280;36598;46.054;11.130;2023-03-23T01:16:41;99083.44;;;12.54;57.47
50636;BME280;36598;46.054;11.130;2023-03-23T01:19:06;99086.66;;;12.16;59.00
50636;BME280;36598;46.054;11.130;2023-03-23T01:21:32;99085.41;;;12.37;58.81
50636;BME280;36598;46.054;11.130;2023-03-23T01:23:57;99075.81;;;12.58;57.25
50636;BME280;36598;46.054;11.130;2023-03-23T01:26:23;99066.22;;;12.79;57.17
50636;BME280;36598;46.054;11.130;2023-03-23T01:28:49;99067.88;;;12.93;56.86
50636;BME280;36598;46.054;11.130;2023-03-23T01:31:19;99061.44;;;12.79;56.85
50636;BME280;36598;46.054;11.130;2023-03-23T01:33:45;99059.72;;;12.69;57.26
50636;BME280;36598;46.054;11.130;2023-03-23T01:36:11;99063.69;;;12.52;57.50
50636;BME280;36598;46.054;11.130;2023-03-23T01:38:37;99062.66;;;12.62;57.41
50636;BME280;36598;46.054;11.130;2023-03-23T01:41:03;99065.25;;;12.53;57.07
50636;BME280;36598;46.054;11.130;2023-03-23T01:43:28;99056.91;;;12.53;57.35
50636;BME280;36598;46.054;11.130;2023-03-23T01:45:54;99057.28;;;12.55;57.24
50636;BME280;36598;46.054;11.130;2023-03-23T01:53:19;99061.03;;;12.65;56.71
50636;BME280;36598;46.054;11.130;2023-03-23T01:55:45;99053.44;;;12.49;57.48
50636;BME280;36598;46.054;11.130;2023-03-23T01:58:16;99050.81;;;12.42;57.55
50636;BME280;36598;46.054;11.130;2023-03-23T02:00:42;99064.38;;;12.56;57.36
50636;BME280;36598;46.054;11.130;2023-03-23T02:03:08;99048.94;;;12.71;56.55
50636;BME280;36598;46.054;11.130;2023-03-23T02:05:36;99054.28;;;12.30;57.93
50636;BME280;36598;46.054;11.130;2023-03-23T02:08:02;99062.75;;;12.02;59.31
50636;BME280;36598;46.054;11.130;2023-03-23T02:10:30;99057.28;;;12.19;58.81
50636;BME280;36598;46.054;11.130;2023-03-23T02:12:56;99053.25;;;11.84;59.32
50636;BME280;36598;46.054;11.130;2023-03-23T02:15:22;99053.38;;;12.16;58.72
50636;BME280;36598;46.054;11.130;2023-03-23T02:23:02;99053.78;;;12.35;58.65
50636;BME280;36598;46.054;11.130;2023-03-23T02:36:16;99049.66;;;12.23;59.07
50636;BME280;36598;46.054;11.130;2023-03-23T02:41:09;99042.13;;;12.23;58.61
50636;BME280;36598;46.054;11.130;2023-03-23T02:43:37;99045.00;;;12.00;59.44
50636;BME280;36598;46.054;11.130;2023-03-23T02:46:04;99037.19;;;12.31;58.36
50636;BME280;36598;46.054;11.130;2023-03-23T02:48:31;99038.56;;;11.87;59.66
50636;BME280;36598;46.054;11.130;2023-03-23T02:50:57;99042.50;;;11.22;61.60
50636;BME280;36598;46.054;11.130;2023-03-23T02:53:24;99037.03;;;11.82;60.01
50636;BME280;36598;46.054;11.130;2023-03-23T02:55:51;99036.19;;;12.05;59.23
50636;BME280;36598;46.054;11.130;2023-03-23T02:58:17;99031.97;;;11.77;59.60
50636;BME280;36598;46.054;11.130;2023-03-23T03:00:43;99036.22;;;11.82;59.57
50636;BME280;36598;46.054;11.130;2023-03-23T03:03:11;99031.66;;;11.51;60.94
50636;BME280;36598;46.054;11.130;2023-03-23T03:05:38;99041.28;;;12.07;59.52
50636;BME280;36598;46.054;11.130;2023-03-23T03:10:37;99026.31;;;11.84;59.89
50636;BME280;36598;46.054;11.130;2023-03-23T03:13:08;99031.34;;;12.09;59.63
50636;BME280;36598;46.054;11.130;2023-03-23T03:15:37;99037.97;;;11.95;60.00
50636;BME280;36598;46.054;11.130;2023-03-23T03:18:10;99030.16;;;12.26;58.70
50636;BME280;36598;46.054;11.130;2023-03-23T03:20:38;99029.53;;;11.83;60.28
50636;BME280;36598;46.054;11.130;2023-03-23T03:23:05;99045.22;;;11.89;59.54
50636;BME280;36598;46.054;11.130;2023-03-23T03:25:32;99044.91;;;11.64;60.60
50636;BME280;36598;46.054;11.130;2023-03-23T03:27:58;99040.41;;;11.50;61.02
50636;BME280;36598;46.054;11.130;2023-03-23T03:30:25;99043.84;;;11.58;61.31
50636;BME280;36598;46.054;11.130;2023-03-23T03:32:53;99041.97;;;11.08;62.50
50636;BME280;36598;46.054;11.130;2023-03-23T03:35:19;99041.00;;;11.18;62.47
50636;BME280;36598;46.054;11.130;2023-03-23T03:37:45;99045.34;;;11.39;61.76
50636;BME280;36598;46.054;11.130;2023-03-23T03:40:16;99048.31;;;11.71;60.98
50636;BME280;36598;46.054;11.130;2023-03-23T03:42:42;99045.53;;;11.71;60.63
50636;BME280;36598;46.054;11.130;2023-03-23T03:45:09;99053.09;;;11.71;60.83
50636;BME280;36598;46.054;11.130;2023-03-23T03:47:35;99054.06;;;11.81;60.58
50636;BME280;36598;46.054;11.130;2023-03-23T03:50:00;99050.59;;;11.57;61.40
50636;BME280;36598;46.054;11.130;2023-03-23T03:52:26;99058.47;;;11.58;60.99
50636;BME280;36598;46.054;11.130;2023-03-23T03:54:52;99061.13;;;11.85;60.16
50636;BME280;36598;46.054;11.130;2023-03-23T03:57:17;99054.50;;;11.99;59.59
50636;BME280;36598;46.054;11.130;2023-03-23T03:59:43;99057.34;;;11.75;60.32
50636;BME280;36598;46.054;11.130;2023-03-23T04:02:09;99064.81;;;11.98;59.91
50636;BME280;36598;46.054;11.130;2023-03-23T04:04:34;99063.25;;;11.58;61.50
50636;BME280;36598;46.054;11.130;2023-03-23T04:06:59;99059.53;;;11.64;61.24
50636;BME280;36598;46.054;11.130;2023-03-23T04:09:26;99064.56;;;11.93;60.45
50636;BME280;36598;46.054;11.130;2023-03-23T04:11:53;99069.88;;;11.84;60.23
50636;BME280;36598;46.054;11.130;2023-03-23T04:14:18;99064.00;;;11.58;61.25
50636;BME280;36598;46.054;11.130;2023-03-23T04:16:43;99071.25;;;11.52;61.86
50636;BME280;36598;46.054;11.130;2023-03-23T04:19:09;99070.84;;;11.53;61.58
50636;BME280;36598;46.054;11.130;2023-03-23T04:21:35;99074.44;;;11.50;61.62
50636;BME280;36598;46.054;11.130;2023-03-23T04:24:00;99072.59;;;11.20;62.54
50636;BME280;36598;46.054;11.130;2023-03-23T04:26:26;99072.44;;;11.51;61.64
50636;BME280;36598;46.054;11.130;2023-03-23T04:28:53;99067.53;;;11.39;61.42
50636;BME280;36598;46.054;11.130;2023-03-23T04:31:20;99072.22;;;11.42;61.79
50636;BME280;36598;46.054;11.130;2023-03-23T04:33:45;99070.22;;;11.22;62.36
50636;BME280;36598;46.054;11.130;2023-03-23T04:36:11;99074.16;;;11.21;62.52
50636;BME280;36598;46.054;11.130;2023-03-23T04:38:40;99071.94;;;11.56;61.65
50636;BME280;36598;46.054;11.130;2023-03-23T04:41:06;99070.84;;;11.73;60.89
50636;BME280;36598;46.054;11.130;2023-03-23T04:43:31;99083.53;;;11.51;61.73
50636;BME280;36598;46.054;11.130;2023-03-23T04:45:58;99083.63;;;11.67;61.70
50636;BME280;36598;46.054;11.130;2023-03-23T04:48:25;99085.94;;;11.92;60.66
50636;BME280;36598;46.054;11.130;2023-03-23T04:50:51;99095.06;;;11.93;60.66
50636;BME280;36598;46.054;11.130;2023-03-23T04:53:17;99084.94;;;11.39;61.53
50636;BME280;36598;46.054;11.130;2023-03-23T04:55:43;99085.69;;;11.63;61.12
50636;BME280;36598;46.054;11.130;2023-03-23T04:58:08;99086.19;;;11.58;61.41
50636;BME280;36598;46.054;11.130;2023-03-23T05:03:07;99088.19;;;11.77;60.57
50636;BME280;36598;46.054;11.130;2023-03-23T05:05:33;99078.91;;;11.88;60.50
50636;BME280;36598;46.054;11.130;2023-03-23T05:07:59;99087.66;;;11.86;60.64
50636;BME280;36598;46.054;11.130;2023-03-23T05:10:25;99094.00;;;11.87;60.53
50636;BME280;36598;46.054;11.130;2023-03-23T05:12:52;99092.88;;;11.81;60.34
50636;BME280;36598;46.054;11.130;2023-03-23T05:15:17;99090.94;;;11.58;60.68
50636;BME280;36598;46.054;11.130;2023-03-23T05:17:43;99092.88;;;11.81;60.71
50636;BME280;36598;46.054;11.130;2023-03-23T05:20:15;99103.25;;;11.57;61.06
50636;BME280;36598;46.054;11.130;2023-03-23T05:22:43;99100.88;;;11.55;61.65
50636;BME280;36598;46.054;11.130;2023-03-23T05:25:09;99096.50;;;11.58;61.26
50636;BME280;36598;46.054;11.130;2023-03-23T05:27:35;99113.00;;;11.41;62.04
50636;BME280;36598;46.054;11.130;2023-03-23T05:30:01;99114.66;;;10.88;64.26
50636;BME280;36598;46.054;11.130;2023-03-23T05:32:26;99116.91;;;11.20;63.37
50636;BME280;36598;46.054;11.130;2023-03-23T05:34:54;99119.09;;;11.33;63.16
50636;BME280;36598;46.054;11.130;2023-03-23T05:37:19;99120.41;;;11.48;62.87
50636;BME280;36598;46.054;11.130;2023-03-23T05:39:45;99120.09;;;11.66;61.82
50636;BME280;36598;46.054;11.130;2023-03-23T05:42:10;99127.59;;;11.89;61.42
50636;BME280;36598;46.054;11.130;2023-03-23T05:44:35;99126.53;;;11.59;61.65
50636;BME280;36598;46.054;11.130;2023-03-23T05:47:01;99132.22;;;11.52;61.95
50636;BME280;36598;46.054;11.130;2023-03-23T05:49:26;99134.78;;;11.63;61.54
50636;BME280;36598;46.054;11.130;2023-03-23T05:51:52;99128.31;;;11.93;60.78
50636;BME280;36598;46.054;11.130;2023-03-23T05:54:17;99132.38;;;11.65;61.65
50636;BME280;36598;46.054;11.130;2023-03-23T05:56:43;99140.66;;;10.94;63.39
50636;BME280;36598;46.054;11.130;2023-03-23T05:59:08;99144.81;;;11.57;61.91
50636;BME280;36598;46.054;11.130;2023-03-23T06:01:35;99143.19;;;11.83;60.82
50636;BME280;36598;46.054;11.130;2023-03-23T06:04:00;99151.59;;;11.75;61.73
50636;BME280;36598;46.054;11.130;2023-03-23T06:06:26;99149.88;;;12.05;60.10
50636;BME280;36598;46.054;11.130;2023-03-23T06:08:52;99151.09;;;12.04;59.97
50636;BME280;36598;46.054;11.130;2023-03-23T06:11:17;99158.69;;;12.20;59.52
50636;BME280;36598;46.054;11.130;2023-03-23T06:13:43;99148.16;;;12.31;59.54
50636;BME280;36598;46.054;11.130;2023-03-23T06:16:09;99155.56;;;11.74;61.34
50636;BME280;36598;46.054;11.130;2023-03-23T06:18:34;99155.69;;;11.91;61.07
50636;BME280;36598;46.054;11.130;2023-03-23T06:21:01;99158.13;;;11.65;61.67
50636;BME280;36598;46.054;11.130;2023-03-23T06:23:27;99161.53;;;11.96;60.83
50636;BME280;36598;46.054;11.130;2023-03-23T06:25:54;99152.81;;;12.38;59.81
50636;BME280;36598;46.054;11.130;2023-03-23T06:28:19;99157.69;;;12.50;59.84
50636;BME280;36598;46.054;11.130;2023-03-23T06:30:45;99151.69;;;12.88;58.00
50636;BME280;36598;46.054;11.130;2023-03-23T06:33:20;99156.06;;;13.05;57.09
50636;BME280;36598;46.054;11.130;2023-03-23T06:35:46;99164.47;;;13.38;56.54
50636;BME280;36598;46.054;11.130;2023-03-23T06:38:11;99169.31;;;13.50;56.00
50636;BME280;36598;46.054;11.130;2023-03-23T06:40:37;99165.34;;;13.96;53.77
50636;BME280;36598;46.054;11.130;2023-03-23T06:43:03;99167.63;;;13.85;54.11
50636;BME280;36598;46.054;11.130;2023-03-23T06:45:31;99171.28;;;14.11;53.79
50636;BME280;36598;46.054;11.130;2023-03-23T06:47:56;99176.47;;;14.55;52.45
50636;BME280;36598;46.054;11.130;2023-03-23T06:50:22;99176.38;;;14.71;51.74
50636;BME280;36598;46.054;11.130;2023-03-23T06:52:49;99180.63;;;14.88;51.21
50636;BME280;36598;46.054;11.130;2023-03-23T06:55:16;99170.28;;;16.97;45.88
50636;BME280;36598;46.054;11.130;2023-03-23T06:57:42;99157.47;;;18.32;43.28
50636;BME280;36598;46.054;11.130;2023-03-23T07:00:08;99168.13;;;19.55;40.52
50636;BME280;36598;46.054;11.130;2023-03-23T07:02:34;99157.38;;;21.69;36.50
50636;BME280;36598;46.054;11.130;2023-03-23T07:05:00;99170.50;;;19.95;39.28
50636;BME280;36598;46.054;11.130;2023-03-23T07:07:26;99164.44;;;19.72;39.17
50636;BME280;36598;46.054;11.130;2023-03-23T07:09:51;99162.19;;;19.29;39.43
50636;BME280;36598;46.054;11.130;2023-03-23T07:12:16;99161.84;;;19.02;40.26
50636;BME280;36598;46.054;11.130;2023-03-23T07:14:42;99154.47;;;20.79;36.79
50636;BME280;36598;46.054;11.130;2023-03-23T07:17:07;99152.16;;;21.83;35.04
50636;BME280;36598;46.054;11.130;2023-03-23T07:19:33;99153.19;;;22.52;33.92
50636;BME280;36598;46.054;11.130;2023-03-23T07:21:58;99163.00;;;23.57;31.89
50636;BME280;36598;46.054;11.130;2023-03-23T07:24:24;99159.66;;;24.07;31.25
50636;BME280;36598;46.054;11.130;2023-03-23T07:26:49;99160.22;;;24.22;30.34
50636;BME280;36598;46.054;11.130;2023-03-23T07:29:16;99148.34;;;23.10;31.91
50636;BME280;36598;46.054;11.130;2023-03-23T07:31:41;99149.06;;;22.21;33.65
50636;BME280;36598;46.054;11.130;2023-03-23T07:34:07;99152.44;;;21.64;34.88
50636;BME280;36598;46.054;11.130;2023-03-23T07:36:33;99151.59;;;21.58;34.27
50636;BME280;36598;46.054;11.130;2023-03-23T07:39:02;99142.13;;;21.41;35.16
50636;BME280;36598;46.054;11.130;2023-03-23T07:41:27;99140.56;;;20.31;37.05
50636;BME280;36598;46.054;11.130;2023-03-23T07:43:53;99142.53;;;20.39;36.44
50636;BME280;36598;46.054;11.130;2023-03-23T07:46:19;99138.16;;;21.68;34.71
50636;BME280;36598;46.054;11.130;2023-03-23T07:48:44;99145.22;;;23.45;32.01
50636;BME280;36598;46.054;11.130;2023-03-23T07:51:09;99129.72;;;25.28;28.74
50636;BME280;36598;46.054;11.130;2023-03-23T07:53:34;99128.81;;;25.78;28.34
50636;BME280;36598;46.054;11.130;2023-03-23T07:56:00;99121.78;;;28.01;26.06
50636;BME280;36598;46.054;11.130;2023-03-23T07:58:28;99127.63;;;28.08;25.00
50636;BME280;36598;46.054;11.130;2023-03-23T08:00:54;99129.47;;;26.42;26.77
50636;BME280;36598;46.054;11.130;2023-03-23T08:03:21;99129.78;;;28.91;24.02
50636;BME280;36598;46.054;11.130;2023-03-23T08:05:47;99131.81;;;26.43;26.38
50636;BME280;36598;46.054;11.130;2023-03-23T08:08:12;99134.16;;;27.05;25.86
50636;BME280;36598;46.054;11.130;2023-03-23T08:10:37;99129.84;;;29.17;23.85
50636;BME280;36598;46.054;11.130;2023-03-23T08:13:03;99126.22;;;28.34;24.47
50636;BME280;36598;46.054;11.130;2023-03-23T08:15:28;99124.53;;;28.95;23.86
50636;BME280;36598;46.054;11.130;2023-03-23T08:17:54;99127.22;;;25.88;27.85
50636;BME280;36598;46.054;11.130;2023-03-23T08:20:19;99127.66;;;25.17;28.73
50636;BME280;36598;46.054;11.130;2023-03-23T08:22:49;99120.66;;;25.46;28.62
50636;BME280;36598;46.054;11.130;2023-03-23T08:25:15;99120.22;;;27.07;26.36
50636;BME280;36598;46.054;11.130;2023-03-23T08:27:42;99121.56;;;28.17;25.19
50636;BME280;36598;46.054;11.130;2023-03-23T08:30:09;99114.50;;;31.10;21.14
50636;BME280;36598;46.054;11.130;2023-03-23T08:32:35;99111.78;;;29.94;22.05
50636;BME280;36598;46.054;11.130;2023-03-23T08:35:01;99113.63;;;29.92;22.52
50636;BME280;36598;46.054;11.130;2023-03-23T08:37:26;99114.16;;;27.46;24.63
50636;BME280;36598;46.054;11.130;2023-03-23T08:39:52;99113.66;;;25.58;27.12
50636;BME280;36598;46.054;11.130;2023-03-23T08:42:18;99104.44;;;25.41;27.84
50636;BME280;36598;46.054;11.130;2023-03-23T08:44:43;99105.91;;;27.67;25.20
50636;BME280;36598;46.054;11.130;2023-03-23T08:47:09;99104.13;;;26.61;26.14
50636;BME280;36598;46.054;11.130;2023-03-23T08:49:34;99102.75;;;25.85;26.53
50636;BME280;36598;46.054;11.130;2023-03-23T08:52:00;99106.41;;;25.74;27.17
50636;BME280;36598;46.054;11.130;2023-03-23T08:54:25;99101.81;;;27.19;25.37
50636;BME280;36598;46.054;11.130;2023-03-23T08:56:51;99104.81;;;26.67;25.86
50636;BME280;36598;46.054;11.130;2023-03-23T08:59:17;99107.03;;;26.08;26.87
50636;BME280;36598;46.054;11.130;2023-03-23T09:01:43;99113.69;;;25.53;28.17
50636;BME280;36598;46.054;11.130;2023-03-23T09:04:08;99110.34;;;25.48;28.12
50636;BME280;36598;46.054;11.130;2023-03-23T09:06:36;99114.72;;;24.20;29.54
50636;BME280;36598;46.054;11.130;2023-03-23T09:09:02;99096.75;;;25.30;28.26
50636;BME280;36598;46.054;11.130;2023-03-23T09:11:32;99113.69;;;26.58;26.70
50636;BME280;36598;46.054;11.130;2023-03-23T09:13:57;99113.59;;;26.28;26.92
50636;BME280;36598;46.054;11.130;2023-03-23T09:16:22;99110.63;;;27.16;25.79
50636;BME280;36598;46.054;11.130;2023-03-23T09:18:48;99107.09;;;26.74;26.27
50636;BME280;36598;46.054;11.130;2023-03-23T09:21:15;99115.22;;;25.54;27.33
50636;BME280;36598;46.054;11.130;2023-03-23T09:23:40;99104.69;;;25.43;28.07
50636;BME280;36598;46.054;11.130;2023-03-23T09:26:09;99113.59;;;26.28;27.15
50636;BME280;36598;46.054;11.130;2023-03-23T09:28:34;99114.28;;;25.98;27.50
50636;BME280;36598;46.054;11.130;2023-03-23T09:31:00;99114.03;;;24.59;28.96
50636;BME280;36598;46.054;11.130;2023-03-23T09:33:25;99110.44;;;24.64;29.39
50636;BME280;36598;46.054;11.130;2023-03-23T09:35:52;99109.09;;;24.26;29.55
50636;BME280;36598;46.054;11.130;2023-03-23T09:38:17;99108.09;;;25.02;28.74
50636;BME280;36598;46.054;11.130;2023-03-23T09:40:45;99100.16;;;25.92;27.55
50636;BME280;36598;46.054;11.130;2023-03-23T09:43:20;99099.38;;;24.94;28.61
50636;BME280;36598;46.054;11.130;2023-03-23T09:50:44;99094.03;;;25.77;28.02
50636;BME280;36598;46.054;11.130;2023-03-23T09:53:21;99097.88;;;25.80;27.45
50636;BME280;36598;46.054;11.130;2023-03-23T09:55:47;99089.06;;;25.89;28.09
50636;BME280;36598;46.054;11.130;2023-03-23T09:58:22;99080.19;;;25.51;27.99
50636;BME280;36598;46.054;11.130;2023-03-23T10:01:01;99082.91;;;24.65;29.17
50636;BME280;36598;46.054;11.130;2023-03-23T10:03:31;99091.41;;;24.42;29.83
50636;BME280;36598;46.054;11.130;2023-03-23T10:05:59;99089.81;;;24.30;29.87
50636;BME280;36598;46.054;11.130;2023-03-23T10:08:26;99085.22;;;24.89;28.59
50636;BME280;36598;46.054;11.130;2023-03-23T10:10:57;99090.63;;;24.53;29.67
50636;BME280;36598;46.054;11.130;2023-03-23T10:15:49;99085.44;;;25.08;29.08
50636;BME280;36598;46.054;11.130;2023-03-23T10:18:31;99090.53;;;25.48;28.96
50636;BME280;36598;46.054;11.130;2023-03-23T10:20:57;99082.88;;;24.98;28.88
50636;BME280;36598;46.054;11.130;2023-03-23T10:28:44;99080.81;;;23.01;31.88
50636;BME280;36598;46.054;11.130;2023-03-23T10:31:17;99082.09;;;23.00;32.02
50636;BME280;36598;46.054;11.130;2023-03-23T10:33:54;99073.63;;;22.68;32.64
50636;BME280;36598;46.054;11.130;2023-03-23T10:36:21;99069.94;;;22.05;33.54
50636;BME280;36598;46.054;11.130;2023-03-23T10:38:53;99069.38;;;22.21;33.49
50636;BME280;36598;46.054;11.130;2023-03-23T10:41:20;99070.31;;;21.92;33.91
50636;BME280;36598;46.054;11.130;2023-03-23T10:43:46;99057.13;;;22.24;33.40
50636;BME280;36598;46.054;11.130;2023-03-23T10:46:19;99056.38;;;22.61;33.06
50636;BME280;36598;46.054;11.130;2023-03-23T10:48:47;99040.47;;;24.82;30.34
50636;BME280;36598;46.054;11.130;2023-03-23T10:51:15;99036.06;;;24.13;30.39
50636;BME280;36598;46.054;11.130;2023-03-23T10:53:45;99032.63;;;23.64;30.65
50636;BME280;36598;46.054;11.130;2023-03-23T10:58:49;99020.34;;;25.77;28.35
50636;BME280;36598;46.054;11.130;2023-03-23T11:01:17;99012.81;;;26.27;27.69
50636;BME280;36598;46.054;11.130;2023-03-23T11:03:44;99009.66;;;26.66;27.12
50636;BME280;36598;46.054;11.130;2023-03-23T11:06:20;99011.28;;;26.20;27.37
50636;BME280;36598;46.054;11.130;2023-03-23T11:08:49;99010.38;;;27.21;26.81
50636;BME280;36598;46.054;11.130;2023-03-23T11:11:27;98994.09;;;26.42;27.98
50636;BME280;36598;46.054;11.130;2023-03-23T11:14:15;98997.19;;;26.99;25.84
50636;BME280;36598;46.054;11.130;2023-03-23T11:16:45;98996.00;;;26.64;25.88
50636;BME280;36598;46.054;11.130;2023-03-23T11:19:15;98993.88;;;25.63;26.88
50636;BME280;36598;46.054;11.130;2023-03-23T11:21:45;98998.94;;;25.76;26.58
50636;BME280;36598;46.054;11.130;2023-03-23T11:24:11;98994.34;;;26.75;26.03
50636;BME280;36598;46.054;11.130;2023-03-23T11:26:36;98988.72;;;26.69;26.19
50636;BME280;36598;46.054;11.130;2023-03-23T11:29:08;98974.34;;;26.61;25.94
50636;BME280;36598;46.054;11.130;2023-03-23T11:31:39;98985.09;;;25.14;27.55
50636;BME280;36598;46.054;11.130;2023-03-23T11:34:09;98987.03;;;24.50;28.88
50636;BME280;36598;46.054;11.130;2023-03-23T11:36:40;98978.78;;;24.18;28.94
50636;BME280;36598;46.054;11.130;2023-03-23T11:41:43;98961.81;;;24.41;28.73
50636;BME280;36598;46.054;11.130;2023-03-23T11:44:10;98959.78;;;24.24;28.62
50636;BME280;36598;46.054;11.130;2023-03-23T11:47:37;98961.72;;;23.51;29.89
50636;BME280;36598;46.054;11.130;2023-03-23T11:52:26;98954.34;;;24.32;28.70
50636;BME280;36598;46.054;11.130;2023-03-23T11:55:03;98953.06;;;25.36;27.84
50636;BME280;36598;46.054;11.130;2023-03-23T11:57:34;98946.59;;;25.88;26.80
50636;BME280;36598;46.054;11.130;2023-03-23T12:00:00;98952.53;;;25.85;26.85
50636;BME280;36598;46.054;11.130;2023-03-23T12:07:43;98935.03;;;25.81;26.11
50636;BME280;36598;46.054;11.130;2023-03-23T12:15:50;98929.69;;;24.21;27.72
50636;BME280;36598;46.054;11.130;2023-03-23T12:23:36;98914.72;;;23.54;29.18
50636;BME280;36598;46.054;11.130;2023-03-23T12:26:24;98917.88;;;23.67;28.96
50636;BME280;36598;46.054;11.130;2023-03-23T12:36:53;98902.09;;;22.61;31.56
50636;BME280;36598;46.054;11.130;2023-03-23T12:44:54;98886.53;;;22.83;31.35
50636;BME280;36598;46.054;11.130;2023-03-23T12:47:40;98884.44;;;22.72;31.41
50636;BME280;36598;46.054;11.130;2023-03-23T12:50:21;98876.38;;;23.02;31.20
50636;BME280;36598;46.054;11.130;2023-03-23T12:55:32;98870.84;;;23.64;30.84
50636;BME280;36598;46.054;11.130;2023-03-23T12:58:06;98863.22;;;22.88;31.64
50636;BME280;36598;46.054;11.130;2023-03-23T13:00:48;98851.19;;;22.87;31.27
50636;BME280;36598;46.054;11.130;2023-03-23T13:03:20;98852.75;;;22.99;31.35
50636;BME280;36598;46.054;11.130;2023-03-23T13:05:49;98843.88;;;23.57;30.89
50636;BME280;36598;46.054;11.130;2023-03-23T13:08:25;98851.88;;;23.76;31.20
50636;BME280;36598;46.054;11.130;2023-03-23T13:10:52;98848.53;;;23.88;30.43
50636;BME280;36598;46.054;11.130;2023-03-23T13:13:39;98849.22;;;24.39;30.06
50636;BME280;36598;46.054;11.130;2023-03-23T13:16:07;98841.03;;;24.24;29.69
50636;BME280;36598;46.054;11.130;2023-03-23T13:18:45;98838.44;;;24.27;29.33
50636;BME280;36598;46.054;11.130;2023-03-23T13:24:09;98833.16;;;23.72;29.87
50636;BME280;36598;46.054;11.130;2023-03-23T13:26:38;98834.13;;;23.47;30.82
50636;BME280;36598;46.054;11.130;2023-03-23T13:29:06;98835.91;;;24.17;30.14
50636;BME280;36598;46.054;11.130;2023-03-23T13:31:37;98827.13;;;24.27;29.97
50636;BME280;36598;46.054;11.130;2023-03-23T13:36:37;98823.94;;;24.69;29.36
50636;BME280;36598;46.054;11.130;2023-03-23T13:39:04;98813.94;;;24.57;29.86
50636;BME280;36598;46.054;11.130;2023-03-23T13:41:32;98815.50;;;24.53;29.14
50636;BME280;36598;46.054;11.130;2023-03-23T13:44:05;98808.38;;;24.23;29.84
50636;BME280;36598;46.054;11.130;2023-03-23T13:46:31;98805.53;;;24.35;30.25
50636;BME280;36598;46.054;11.130;2023-03-23T13:49:17;98802.72;;;24.23;29.75
50636;BME280;36598;46.054;11.130;2023-03-23T13:56:59;98780.72;;;23.88;30.10
50636;BME280;36598;46.054;11.130;2023-03-23T14:01:51;98775.56;;;23.98;30.50
50636;BME280;36598;46.054;11.130;2023-03-23T14:04:17;98778.66;;;24.00;30.37
50636;BME280;36598;46.054;11.130;2023-03-23T14:06:44;98778.69;;;23.83;30.59
50636;BME280;36598;46.054;11.130;2023-03-23T14:09:16;98781.75;;;23.80;30.76
50636;BME280;36598;46.054;11.130;2023-03-23T14:11:50;98776.41;;;23.65;30.53
50636;BME280;36598;46.054;11.130;2023-03-23T14:14:39;98774.81;;;23.64;30.65
50636;BME280;36598;46.054;11.130;2023-03-23T14:17:15;98761.75;;;23.44;30.96
50636;BME280;36598;46.054;11.130;2023-03-23T14:19:42;98754.03;;;23.44;30.76
50636;BME280;36598;46.054;11.130;2023-03-23T14:22:22;98759.66;;;23.16;30.26
50636;BME280;36598;46.054;11.130;2023-03-23T14:24:48;98753.00;;;23.03;30.72
50636;BME280;36598;46.054;11.130;2023-03-23T14:27:21;98754.81;;;23.11;30.86